sensor_id;sensor_type;location;lat;lon;timestamp;temperature;humidity
7290;DHT22;63176;52.678;13.250;2023-02-28T00:00:46;-0.80;99.90
7290;DHT22;63176;52.678;13.250;2023-02-28T00:03:12;-0.80;99.90
7290;DHT22;63176;52.678;13.250;2023-02-28T00:05:38;-0.90;99.90
7290;DHT22;63176;52.678;13.250;2023-02-28T00:08:04;-0.90;99.90
7290;DHT22;63176;52.678;13.250;2023-02-28T00:10:31;-0.80;99.90
7290;DHT22;63176;52.678;13.250;2023-02-28T00:13:02;-0.80;99.90
7290;DHT22;63176;52.678;13.250;2023-02-28T00:15:28;-0.80;99.90
7290;DHT22;63176;52.678;13.250;2023-02-28T00:17:54;-0.70;99.90
7290;DHT22;63176;52.678;13.250;2023-02-28T00:20:19;-0.90;99.90
7290;DHT22;63176;52.678;13.250;2023-02-28T00:22:48;-0.90;99.90
7290;DHT22;63176;52.678;13.250;2023-02-28T00:25:16;-1.00;99.90
7290;DHT22;63176;52.678;13.250;2023-02-28T00:27:43;-1.10;99.90
7290;DHT22;63176;52.678;13.250;2023-02-28T00:30:12;-1.10;99.90
7290;DHT22;63176;52.678;13.250;2023-02-28T00:32:38;-1.20;99.90
7290;DHT22;63176;52.678;13.250;2023-02-28T00:35:04;-1.30;99.90
7290;DHT22;63176;52.678;13.250;2023-02-28T00:37:30;-1.40;99.90
7290;DHT22;63176;52.678;13.250;2023-02-28T00:39:56;-1.50;99.90
7290;DHT22;63176;52.678;13.250;2023-02-28T00:42:22;-1.50;99.90
7290;DHT22;63176;52.678;13.250;2023-02-28T00:44:47;-1.50;99.90
7290;DHT22;63176;52.678;13.250;2023-02-28T00:47:13;-1.50;99.90
7290;DHT22;63176;52.678;13.250;2023-02-28T00:49:40;-1.50;99.90
7290;DHT22;63176;52.678;13.250;2023-02-28T00:52:05;-1.60;99.90
7290;DHT22;63176;52.678;13.250;2023-02-28T00:54:31;-1.60;99.90
7290;DHT22;63176;52.678;13.250;2023-02-28T00:56:57;-1.60;99.90
7290;DHT22;63176;52.678;13.250;2023-02-28T00:59:23;-1.70;99.90
7290;DHT22;63176;52.678;13.250;2023-02-28T01:01:49;-1.70;99.90
7290;DHT22;63176;52.678;13.250;2023-02-28T01:04:14;-1.80;99.90
7290;DHT22;63176;52.678;13.250;2023-02-28T01:06:40;-1.80;99.90
7290;DHT22;63176;52.678;13.250;2023-02-28T01:09:07;-1.80;99.90
7290;DHT22;63176;52.678;13.250;2023-02-28T01:11:34;-1.80;99.90
7290;DHT22;63176;52.678;13.250;2023-02-28T01:14:00;-1.80;99.90
7290;DHT22;63176;52.678;13.250;2023-02-28T01:16:26;-1.80;99.90
7290;DHT22;63176;52.678;13.250;2023-02-28T01:18:52;-1.90;99.90
7290;DHT22;63176;52.678;13.250;2023-02-28T01:21:19;-1.90;99.90
7290;DHT22;63176;52.678;13.250;2023-02-28T01:23:45;-1.90;99.90
7290;DHT22;63176;52.678;13.250;2023-02-28T01:26:17;-2.00;99.90
7290;DHT22;63176;52.678;13.250;2023-02-28T01:28:43;-2.00;99.90
7290;DHT22;63176;52.678;13.250;2023-02-28T01:31:10;-2.00;99.90
7290;DHT22;63176;52.678;13.250;2023-02-28T01:33:36;-2.00;99.90
7290;DHT22;63176;52.678;13.250;2023-02-28T01:36:09;-2.00;99.90
7290;DHT22;63176;52.678;13.250;2023-02-28T01:38:35;-2.00;99.90
7290;DHT22;63176;52.678;13.250;2023-02-28T01:41:00;-2.00;99.90
7290;DHT22;63176;52.678;13.250;2023-02-28T01:43:32;-2.10;99.90
7290;DHT22;63176;52.678;13.250;2023-02-28T01:45:59;-2.10;99.90
7290;DHT22;63176;52.678;13.250;2023-02-28T01:48:27;-2.20;99.90
7290;DHT22;63176;52.678;13.250;2023-02-28T01:50:59;-2.20;99.90
7290;DHT22;63176;52.678;13.250;2023-02-28T01:53:40;-2.20;99.90
7290;DHT22;63176;52.678;13.250;2023-02-28T01:56:10;-2.30;99.90
7290;DHT22;63176;52.678;13.250;2023-02-28T01:58:37;-2.20;99.90
7290;DHT22;63176;52.678;13.250;2023-02-28T02:01:03;-2.20;99.90
7290;DHT22;63176;52.678;13.250;2023-02-28T02:03:30;-2.20;99.90
7290;DHT22;63176;52.678;13.250;2023-02-28T02:05:56;-2.20;99.90
7290;DHT22;63176;52.678;13.250;2023-02-28T02:08:26;-2.10;99.90
7290;DHT22;63176;52.678;13.250;2023-02-28T02:11:01;-2.20;99.90
7290;DHT22;63176;52.678;13.250;2023-02-28T02:18:54;-2.30;99.90
7290;DHT22;63176;52.678;13.250;2023-02-28T02:21:54;-2.40;99.90
7290;DHT22;63176;52.678;13.250;2023-02-28T02:35:27;-2.40;99.90
7290;DHT22;63176;52.678;13.250;2023-02-28T02:38:00;-2.40;99.90
7290;DHT22;63176;52.678;13.250;2023-02-28T02:43:49;-2.40;99.90
7290;DHT22;63176;52.678;13.250;2023-02-28T02:46:45;-2.40;99.90
7290;DHT22;63176;52.678;13.250;2023-02-28T02:49:30;-2.50;99.90
7290;DHT22;63176;52.678;13.250;2023-02-28T02:51:58;-2.50;99.90
7290;DHT22;63176;52.678;13.250;2023-02-28T02:54:36;-2.60;99.90
7290;DHT22;63176;52.678;13.250;2023-02-28T02:57:06;-2.70;99.90
7290;DHT22;63176;52.678;13.250;2023-02-28T02:59:35;-2.70;99.90
7290;DHT22;63176;52.678;13.250;2023-02-28T03:02:04;-2.70;99.90
7290;DHT22;63176;52.678;13.250;2023-02-28T03:04:35;-2.70;99.90
7290;DHT22;63176;52.678;13.250;2023-02-28T03:07:03;-2.70;99.90
7290;DHT22;63176;52.678;13.250;2023-02-28T03:09:32;-2.70;99.90
7290;DHT22;63176;52.678;13.250;2023-02-28T03:11:58;-2.70;99.90
7290;DHT22;63176;52.678;13.250;2023-02-28T03:14:33;-2.70;99.90
7290;DHT22;63176;52.678;13.250;2023-02-28T03:20:57;-2.70;99.90
7290;DHT22;63176;52.678;13.250;2023-02-28T03:23:16;-2.80;99.90
7290;DHT22;63176;52.678;13.250;2023-02-28T03:30:59;-2.60;99.90
7290;DHT22;63176;52.678;13.250;2023-02-28T03:33:30;-2.80;99.90
7290;DHT22;63176;52.678;13.250;2023-02-28T03:36:18;-2.80;99.90
7290;DHT22;63176;52.678;13.250;2023-02-28T03:38:49;-2.90;99.90
7290;DHT22;63176;52.678;13.250;2023-02-28T03:41:24;-2.90;99.90
7290;DHT22;63176;52.678;13.250;2023-02-28T03:44:13;-3.00;99.90
7290;DHT22;63176;52.678;13.250;2023-02-28T03:46:52;-3.00;99.90
7290;DHT22;63176;52.678;13.250;2023-02-28T03:49:27;-2.90;99.90
7290;DHT22;63176;52.678;13.250;2023-02-28T03:51:54;-3.00;99.90
7290;DHT22;63176;52.678;13.250;2023-02-28T03:54:45;-3.00;99.90
7290;DHT22;63176;52.678;13.250;2023-02-28T03:57:22;-3.00;99.90
7290;DHT22;63176;52.678;13.250;2023-02-28T04:00:00;-3.00;99.90
7290;DHT22;63176;52.678;13.250;2023-02-28T04:02:29;-3.00;99.90
7290;DHT22;63176;52.678;13.250;2023-02-28T04:04:55;-3.00;99.90
7290;DHT22;63176;52.678;13.250;2023-02-28T04:07:21;-3.00;99.90
7290;DHT22;63176;52.678;13.250;2023-02-28T04:09:46;-3.10;99.90
7290;DHT22;63176;52.678;13.250;2023-02-28T04:12:12;-3.10;99.90
7290;DHT22;63176;52.678;13.250;2023-02-28T04:14:38;-3.10;99.90
7290;DHT22;63176;52.678;13.250;2023-02-28T04:17:03;-3.10;99.90
7290;DHT22;63176;52.678;13.250;2023-02-28T04:19:29;-3.20;99.90
7290;DHT22;63176;52.678;13.250;2023-02-28T04:21:55;-3.10;99.90
7290;DHT22;63176;52.678;13.250;2023-02-28T04:24:23;-3.20;99.90
7290;DHT22;63176;52.678;13.250;2023-02-28T04:26:52;-3.20;99.90
7290;DHT22;63176;52.678;13.250;2023-02-28T04:29:24;-3.30;99.90
7290;DHT22;63176;52.678;13.250;2023-02-28T04:31:50;-3.30;99.90
7290;DHT22;63176;52.678;13.250;2023-02-28T04:34:16;-3.20;99.90
7290;DHT22;63176;52.678;13.250;2023-02-28T04:36:44;-3.30;99.90
7290;DHT22;63176;52.678;13.250;2023-02-28T04:39:11;-3.40;99.90
7290;DHT22;63176;52.678;13.250;2023-02-28T04:41:37;-3.40;99.90
7290;DHT22;63176;52.678;13.250;2023-02-28T04:44:03;-3.60;99.90
7290;DHT22;63176;52.678;13.250;2023-02-28T04:46:29;-3.40;99.90
7290;DHT22;63176;52.678;13.250;2023-02-28T04:48:55;-3.40;99.90
7290;DHT22;63176;52.678;13.250;2023-02-28T04:51:21;-3.50;99.90
7290;DHT22;63176;52.678;13.250;2023-02-28T04:53:47;-3.50;99.90
7290;DHT22;63176;52.678;13.250;2023-02-28T04:56:15;-3.50;99.90
7290;DHT22;63176;52.678;13.250;2023-02-28T04:58:41;-3.60;99.90
7290;DHT22;63176;52.678;13.250;2023-02-28T05:01:29;-3.50;99.90
7290;DHT22;63176;52.678;13.250;2023-02-28T05:03:57;-3.40;99.90
7290;DHT22;63176;52.678;13.250;2023-02-28T05:06:25;-3.40;99.90
7290;DHT22;63176;52.678;13.250;2023-02-28T05:08:51;-3.50;99.90
7290;DHT22;63176;52.678;13.250;2023-02-28T05:11:29;-3.50;99.90
7290;DHT22;63176;52.678;13.250;2023-02-28T05:14:01;-3.60;99.90
7290;DHT22;63176;52.678;13.250;2023-02-28T05:16:27;-3.50;99.90
7290;DHT22;63176;52.678;13.250;2023-02-28T05:18:52;-3.60;99.90
7290;DHT22;63176;52.678;13.250;2023-02-28T05:21:37;-3.60;99.90
7290;DHT22;63176;52.678;13.250;2023-02-28T05:24:05;-3.70;99.90
7290;DHT22;63176;52.678;13.250;2023-02-28T05:26:35;-3.70;99.90
7290;DHT22;63176;52.678;13.250;2023-02-28T05:29:01;-3.70;99.90
7290;DHT22;63176;52.678;13.250;2023-02-28T05:31:26;-3.70;99.90
7290;DHT22;63176;52.678;13.250;2023-02-28T05:33:52;-3.70;99.90
7290;DHT22;63176;52.678;13.250;2023-02-28T05:36:18;-3.60;99.90
7290;DHT22;63176;52.678;13.250;2023-02-28T05:38:46;-3.80;99.90
7290;DHT22;63176;52.678;13.250;2023-02-28T05:41:12;-3.80;99.90
7290;DHT22;63176;52.678;13.250;2023-02-28T05:43:38;-3.80;99.90
7290;DHT22;63176;52.678;13.250;2023-02-28T05:46:09;-3.80;99.90
7290;DHT22;63176;52.678;13.250;2023-02-28T05:48:36;-3.70;99.90
7290;DHT22;63176;52.678;13.250;2023-02-28T05:51:03;-3.80;99.90
7290;DHT22;63176;52.678;13.250;2023-02-28T05:53:32;-3.70;99.90
7290;DHT22;63176;52.678;13.250;2023-02-28T05:55:59;-3.60;99.90
7290;DHT22;63176;52.678;13.250;2023-02-28T05:58:25;-3.70;99.90
7290;DHT22;63176;52.678;13.250;2023-02-28T06:00:54;-3.70;99.90
7290;DHT22;63176;52.678;13.250;2023-02-28T06:03:20;-3.70;99.90
7290;DHT22;63176;52.678;13.250;2023-02-28T06:05:45;-3.70;99.90
7290;DHT22;63176;52.678;13.250;2023-02-28T06:08:11;-3.70;99.90
7290;DHT22;63176;52.678;13.250;2023-02-28T06:10:37;-3.70;99.90
7290;DHT22;63176;52.678;13.250;2023-02-28T06:13:04;-3.70;99.90
7290;DHT22;63176;52.678;13.250;2023-02-28T06:15:30;-3.70;99.90
7290;DHT22;63176;52.678;13.250;2023-02-28T06:17:56;-3.70;99.90
7290;DHT22;63176;52.678;13.250;2023-02-28T06:20:23;-3.70;99.90
7290;DHT22;63176;52.678;13.250;2023-02-28T06:22:49;-3.70;99.90
7290;DHT22;63176;52.678;13.250;2023-02-28T06:25:16;-3.70;99.90
7290;DHT22;63176;52.678;13.250;2023-02-28T06:27:42;-3.60;99.90
7290;DHT22;63176;52.678;13.250;2023-02-28T06:30:10;-3.60;99.90
7290;DHT22;63176;52.678;13.250;2023-02-28T06:32:39;-3.70;99.90
7290;DHT22;63176;52.678;13.250;2023-02-28T06:35:05;-3.70;99.90
7290;DHT22;63176;52.678;13.250;2023-02-28T06:37:32;-3.50;99.90
7290;DHT22;63176;52.678;13.250;2023-02-28T06:39:57;-3.60;99.90
7290;DHT22;63176;52.678;13.250;2023-02-28T06:42:24;-3.50;99.90
7290;DHT22;63176;52.678;13.250;2023-02-28T06:44:55;-3.50;99.90
7290;DHT22;63176;52.678;13.250;2023-02-28T06:47:21;-3.50;99.90
7290;DHT22;63176;52.678;13.250;2023-02-28T06:49:47;-3.40;99.90
7290;DHT22;63176;52.678;13.250;2023-02-28T06:52:13;-3.40;99.90
7290;DHT22;63176;52.678;13.250;2023-02-28T06:54:39;-3.30;99.90
7290;DHT22;63176;52.678;13.250;2023-02-28T06:57:05;-3.20;99.90
7290;DHT22;63176;52.678;13.250;2023-02-28T06:59:31;-3.20;99.90
7290;DHT22;63176;52.678;13.250;2023-02-28T07:01:56;-3.10;99.90
7290;DHT22;63176;52.678;13.250;2023-02-28T07:04:22;-2.90;99.90
7290;DHT22;63176;52.678;13.250;2023-02-28T07:06:48;-2.80;99.90
7290;DHT22;63176;52.678;13.250;2023-02-28T07:09:14;-2.70;99.90
7290;DHT22;63176;52.678;13.250;2023-02-28T07:11:40;-2.60;99.90
7290;DHT22;63176;52.678;13.250;2023-02-28T07:14:08;-2.50;99.90
7290;DHT22;63176;52.678;13.250;2023-02-28T07:16:34;-2.30;99.90
7290;DHT22;63176;52.678;13.250;2023-02-28T07:19:00;-2.20;99.90
7290;DHT22;63176;52.678;13.250;2023-02-28T07:21:26;-2.10;99.90
7290;DHT22;63176;52.678;13.250;2023-02-28T07:23:52;-2.00;99.90
7290;DHT22;63176;52.678;13.250;2023-02-28T07:26:19;-1.90;99.90
7290;DHT22;63176;52.678;13.250;2023-02-28T07:28:46;-1.80;99.90
7290;DHT22;63176;52.678;13.250;2023-02-28T07:31:14;-1.70;99.90
7290;DHT22;63176;52.678;13.250;2023-02-28T07:33:40;-1.60;99.90
7290;DHT22;63176;52.678;13.250;2023-02-28T07:36:08;-1.60;99.90
7290;DHT22;63176;52.678;13.250;2023-02-28T07:38:39;-1.50;99.90
7290;DHT22;63176;52.678;13.250;2023-02-28T07:41:05;-1.20;99.90
7290;DHT22;63176;52.678;13.250;2023-02-28T07:43:31;-0.80;99.90
7290;DHT22;63176;52.678;13.250;2023-02-28T07:46:03;-0.70;99.90
7290;DHT22;63176;52.678;13.250;2023-02-28T07:48:29;-0.60;99.90
7290;DHT22;63176;52.678;13.250;2023-02-28T07:50:56;-0.20;99.90
7290;DHT22;63176;52.678;13.250;2023-02-28T07:53:21;0.30;99.90
7290;DHT22;63176;52.678;13.250;2023-02-28T07:55:48;0.50;99.90
7290;DHT22;63176;52.678;13.250;2023-02-28T07:58:13;0.50;99.90
7290;DHT22;63176;52.678;13.250;2023-02-28T08:00:39;0.40;99.90
7290;DHT22;63176;52.678;13.250;2023-02-28T08:03:04;0.30;99.90
7290;DHT22;63176;52.678;13.250;2023-02-28T08:05:30;0.30;99.90
7290;DHT22;63176;52.678;13.250;2023-02-28T08:07:56;0.30;99.90
7290;DHT22;63176;52.678;13.250;2023-02-28T08:10:22;0.30;99.90
7290;DHT22;63176;52.678;13.250;2023-02-28T08:12:49;0.40;99.90
7290;DHT22;63176;52.678;13.250;2023-02-28T08:15:14;0.60;99.90
7290;DHT22;63176;52.678;13.250;2023-02-28T08:17:40;0.70;99.90
7290;DHT22;63176;52.678;13.250;2023-02-28T08:20:07;0.80;99.90
7290;DHT22;63176;52.678;13.250;2023-02-28T08:22:32;0.90;99.90
7290;DHT22;63176;52.678;13.250;2023-02-28T08:24:58;0.90;99.90
7290;DHT22;63176;52.678;13.250;2023-02-28T08:27:24;1.00;99.90
7290;DHT22;63176;52.678;13.250;2023-02-28T08:29:49;1.00;99.90
7290;DHT22;63176;52.678;13.250;2023-02-28T08:32:15;1.20;99.90
7290;DHT22;63176;52.678;13.250;2023-02-28T08:34:41;1.30;99.90
7290;DHT22;63176;52.678;13.250;2023-02-28T08:37:06;1.50;99.90
7290;DHT22;63176;52.678;13.250;2023-02-28T08:39:35;1.60;99.90
7290;DHT22;63176;52.678;13.250;2023-02-28T08:42:02;1.70;99.90
7290;DHT22;63176;52.678;13.250;2023-02-28T08:44:28;1.90;99.90
7290;DHT22;63176;52.678;13.250;2023-02-28T08:46:55;2.10;99.90
7290;DHT22;63176;52.678;13.250;2023-02-28T08:49:21;2.40;99.90
7290;DHT22;63176;52.678;13.250;2023-02-28T08:51:46;2.60;99.90
7290;DHT22;63176;52.678;13.250;2023-02-28T08:54:12;2.80;99.90
7290;DHT22;63176;52.678;13.250;2023-02-28T08:56:38;3.00;99.90
7290;DHT22;63176;52.678;13.250;2023-02-28T08:59:04;3.20;99.90
7290;DHT22;63176;52.678;13.250;2023-02-28T09:01:30;3.30;99.90
7290;DHT22;63176;52.678;13.250;2023-02-28T09:03:58;3.60;99.90
7290;DHT22;63176;52.678;13.250;2023-02-28T09:06:25;3.80;99.90
7290;DHT22;63176;52.678;13.250;2023-02-28T09:08:52;3.80;99.90
7290;DHT22;63176;52.678;13.250;2023-02-28T09:11:18;3.80;99.90
7290;DHT22;63176;52.678;13.250;2023-02-28T09:13:44;3.80;99.90
7290;DHT22;63176;52.678;13.250;2023-02-28T09:16:12;3.80;99.90
7290;DHT22;63176;52.678;13.250;2023-02-28T09:18:39;4.10;99.90
7290;DHT22;63176;52.678;13.250;2023-02-28T09:21:10;4.30;99.90
7290;DHT22;63176;52.678;13.250;2023-02-28T09:23:37;4.50;99.90
7290;DHT22;63176;52.678;13.250;2023-02-28T09:26:05;4.80;99.90
7290;DHT22;63176;52.678;13.250;2023-02-28T09:28:31;5.30;99.90
7290;DHT22;63176;52.678;13.250;2023-02-28T09:30:57;5.90;99.90
7290;DHT22;63176;52.678;13.250;2023-02-28T09:33:24;6.30;99.90
7290;DHT22;63176;52.678;13.250;2023-02-28T09:35:51;6.80;99.90
7290;DHT22;63176;52.678;13.250;2023-02-28T09:38:22;6.90;99.90
7290;DHT22;63176;52.678;13.250;2023-02-28T09:41:19;7.00;99.90
7290;DHT22;63176;52.678;13.250;2023-02-28T09:43:49;7.20;99.90
7290;DHT22;63176;52.678;13.250;2023-02-28T09:46:35;7.90;99.90
7290;DHT22;63176;52.678;13.250;2023-02-28T09:49:08;8.10;99.90
7290;DHT22;63176;52.678;13.250;2023-02-28T09:51:59;8.30;99.90
7290;DHT22;63176;52.678;13.250;2023-02-28T09:54:30;8.40;99.90
7290;DHT22;63176;52.678;13.250;2023-02-28T09:57:37;8.60;99.90
7290;DHT22;63176;52.678;13.250;2023-02-28T10:03:24;9.30;99.90
7290;DHT22;63176;52.678;13.250;2023-02-28T10:06:26;9.20;99.90
7290;DHT22;63176;52.678;13.250;2023-02-28T10:09:26;9.00;99.90
7290;DHT22;63176;52.678;13.250;2023-02-28T10:11:57;8.90;99.90
7290;DHT22;63176;52.678;13.250;2023-02-28T10:14:28;9.20;99.90
7290;DHT22;63176;52.678;13.250;2023-02-28T10:17:11;9.60;99.90
7290;DHT22;63176;52.678;13.250;2023-02-28T10:20:11;10.30;99.90
7290;DHT22;63176;52.678;13.250;2023-02-28T10:25:35;11.00;99.90
7290;DHT22;63176;52.678;13.250;2023-02-28T10:28:20;11.30;99.90
7290;DHT22;63176;52.678;13.250;2023-02-28T10:30:50;11.20;99.90
7290;DHT22;63176;52.678;13.250;2023-02-28T10:33:23;11.30;99.90
7290;DHT22;63176;52.678;13.250;2023-02-28T10:35:51;11.00;99.90
7290;DHT22;63176;52.678;13.250;2023-02-28T10:38:23;10.40;99.90
7290;DHT22;63176;52.678;13.250;2023-02-28T10:40:50;10.00;99.90
7290;DHT22;63176;52.678;13.250;2023-02-28T10:48:40;8.90;99.90
7290;DHT22;63176;52.678;13.250;2023-02-28T10:51:13;9.00;99.90
7290;DHT22;63176;52.678;13.250;2023-02-28T10:53:53;8.80;99.90
7290;DHT22;63176;52.678;13.250;2023-02-28T10:56:26;8.60;99.90
7290;DHT22;63176;52.678;13.250;2023-02-28T11:03:49;10.60;99.90
7290;DHT22;63176;52.678;13.250;2023-02-28T11:06:21;11.40;99.90
7290;DHT22;63176;52.678;13.250;2023-02-28T11:09:22;11.40;99.90
7290;DHT22;63176;52.678;13.250;2023-02-28T11:11:49;11.00;99.90
7290;DHT22;63176;52.678;13.250;2023-02-28T11:14:30;10.90;99.90
7290;DHT22;63176;52.678;13.250;2023-02-28T11:17:03;10.80;99.90
7290;DHT22;63176;52.678;13.250;2023-02-28T11:19:43;11.20;99.90
7290;DHT22;63176;52.678;13.250;2023-02-28T11:22:10;11.40;99.90
7290;DHT22;63176;52.678;13.250;2023-02-28T11:24:44;11.50;99.90
7290;DHT22;63176;52.678;13.250;2023-02-28T11:29:58;12.80;99.90
7290;DHT22;63176;52.678;13.250;2023-02-28T11:32:29;13.10;99.90
7290;DHT22;63176;52.678;13.250;2023-02-28T11:37:37;13.10;99.90
7290;DHT22;63176;52.678;13.250;2023-02-28T11:40:15;13.00;99.90
7290;DHT22;63176;52.678;13.250;2023-02-28T11:48:41;11.60;99.90
7290;DHT22;63176;52.678;13.250;2023-02-28T11:51:35;11.60;99.90
7290;DHT22;63176;52.678;13.250;2023-02-28T11:56:46;11.10;99.90
7290;DHT22;63176;52.678;13.250;2023-02-28T12:05:37;9.20;99.90
7290;DHT22;63176;52.678;13.250;2023-02-28T12:13:48;8.00;99.90
7290;DHT22;63176;52.678;13.250;2023-02-28T12:27:31;7.30;99.90
7290;DHT22;63176;52.678;13.250;2023-02-28T12:30:08;7.20;99.90
7290;DHT22;63176;52.678;13.250;2023-02-28T12:32:46;7.20;99.90
7290;DHT22;63176;52.678;13.250;2023-02-28T12:35:16;7.20;99.90
7290;DHT22;63176;52.678;13.250;2023-02-28T12:37:47;7.20;99.90
7290;DHT22;63176;52.678;13.250;2023-02-28T12:40:23;7.20;99.90
7290;DHT22;63176;52.678;13.250;2023-02-28T12:42:59;7.30;99.90
7290;DHT22;63176;52.678;13.250;2023-02-28T12:46:02;7.30;99.90
7290;DHT22;63176;52.678;13.250;2023-02-28T12:48:42;7.30;99.90
7290;DHT22;63176;52.678;13.250;2023-02-28T12:51:08;7.30;99.90
7290;DHT22;63176;52.678;13.250;2023-02-28T13:10:50;7.00;99.90
7290;DHT22;63176;52.678;13.250;2023-02-28T13:13:22;7.00;99.90
7290;DHT22;63176;52.678;13.250;2023-02-28T13:18:46;7.00;99.90
7290;DHT22;63176;52.678;13.250;2023-02-28T13:21:26;7.00;99.90
7290;DHT22;63176;52.678;13.250;2023-02-28T13:34:32;6.80;99.90
7290;DHT22;63176;52.678;13.250;2023-02-28T13:47:42;6.60;99.90
7290;DHT22;63176;52.678;13.250;2023-02-28T13:52:55;6.60;99.90
7290;DHT22;63176;52.678;13.250;2023-02-28T14:06:55;6.50;99.90
7290;DHT22;63176;52.678;13.250;2023-02-28T14:09:34;6.50;99.90
7290;DHT22;63176;52.678;13.250;2023-02-28T14:15:23;6.50;99.90
7290;DHT22;63176;52.678;13.250;2023-02-28T14:17:54;6.50;99.90
7290;DHT22;63176;52.678;13.250;2023-02-28T14:20:22;6.50;99.90
7290;DHT22;63176;52.678;13.250;2023-02-28T14:25:30;6.50;99.90
7290;DHT22;63176;52.678;13.250;2023-02-28T14:35:50;6.30;99.90
7290;DHT22;63176;52.678;13.250;2023-02-28T14:38:21;6.20;99.90
7290;DHT22;63176;52.678;13.250;2023-02-28T14:40:51;6.20;99.90
7290;DHT22;63176;52.678;13.250;2023-02-28T14:43:25;6.20;99.90
7290;DHT22;63176;52.678;13.250;2023-02-28T14:46:02;6.20;99.90
7290;DHT22;63176;52.678;13.250;2023-02-28T14:48:29;6.20;99.90
7290;DHT22;63176;52.678;13.250;2023-02-28T14:50:58;6.20;99.90
7290;DHT22;63176;52.678;13.250;2023-02-28T14:53:27;6.30;99.90
7290;DHT22;63176;52.678;13.250;2023-02-28T14:55:53;6.20;99.90
7290;DHT22;63176;52.678;13.250;2023-02-28T14:58:28;6.20;99.90
7290;DHT22;63176;52.678;13.250;2023-02-28T15:00:57;6.20;99.90
7290;DHT22;63176;52.678;13.250;2023-02-28T15:03:35;6.10;99.90
7290;DHT22;63176;52.678;13.250;2023-02-28T15:08:30;6.10;99.90
7290;DHT22;63176;52.678;13.250;2023-02-28T15:11:15;6.00;99.90
7290;DHT22;63176;52.678;13.250;2023-02-28T15:13:46;6.00;99.90
7290;DHT22;63176;52.678;13.250;2023-02-28T15:16:22;6.00;99.90
7290;DHT22;63176;52.678;13.250;2023-02-28T15:18:52;5.90;99.90
7290;DHT22;63176;52.678;13.250;2023-02-28T15:21:25;5.90;99.90
7290;DHT22;63176;52.678;13.250;2023-02-28T15:26:28;5.80;99.90
7290;DHT22;63176;52.678;13.250;2023-02-28T15:29:00;5.80;99.90
7290;DHT22;63176;52.678;13.250;2023-02-28T15:31:35;5.70;99.90
7290;DHT22;63176;52.678;13.250;2023-02-28T15:34:06;5.70;99.90
7290;DHT22;63176;52.678;13.250;2023-02-28T15:36:33;5.60;99.90
7290;DHT22;63176;52.678;13.250;2023-02-28T15:39:16;5.60;99.90
7290;DHT22;63176;52.678;13.250;2023-02-28T15:41:43;5.50;99.90
7290;DHT22;63176;52.678;13.250;2023-02-28T15:44:17;5.40;99.90
7290;DHT22;63176;52.678;13.250;2023-02-28T15:47:02;5.30;99.90
7290;DHT22;63176;52.678;13.250;2023-02-28T15:49:37;5.30;99.90
7290;DHT22;63176;52.678;13.250;2023-02-28T15:52:04;5.10;99.90
7290;DHT22;63176;52.678;13.250;2023-02-28T15:54:33;5.10;99.90
7290;DHT22;63176;52.678;13.250;2023-02-28T15:57:15;5.00;99.90
7290;DHT22;63176;52.678;13.250;2023-02-28T15:59:54;4.90;99.90
7290;DHT22;63176;52.678;13.250;2023-02-28T16:02:25;4.80;99.90
7290;DHT22;63176;52.678;13.250;2023-02-28T16:07:32;4.80;99.90
7290;DHT22;63176;52.678;13.250;2023-02-28T16:09:59;4.70;99.90
7290;DHT22;63176;52.678;13.250;2023-02-28T16:12:30;4.60;99.90
7290;DHT22;63176;52.678;13.250;2023-02-28T16:14:59;4.50;99.90
7290;DHT22;63176;52.678;13.250;2023-02-28T16:17:30;4.40;99.90
7290;DHT22;63176;52.678;13.250;2023-02-28T16:19:57;4.40;99.90
7290;DHT22;63176;52.678;13.250;2023-02-28T16:22:23;4.20;99.90
7290;DHT22;63176;52.678;13.250;2023-02-28T16:24:48;4.10;99.90
7290;DHT22;63176;52.678;13.250;2023-02-28T16:27:32;4.00;99.90
7290;DHT22;63176;52.678;13.250;2023-02-28T16:29:58;3.90;99.90
7290;DHT22;63176;52.678;13.250;2023-02-28T16:32:24;3.70;99.90
7290;DHT22;63176;52.678;13.250;2023-02-28T16:34:50;3.60;99.90
7290;DHT22;63176;52.678;13.250;2023-02-28T16:37:17;3.50;99.90
7290;DHT22;63176;52.678;13.250;2023-02-28T16:39:44;3.40;99.90
7290;DHT22;63176;52.678;13.250;2023-02-28T16:42:21;3.20;99.90
7290;DHT22;63176;52.678;13.250;2023-02-28T16:44:48;3.10;99.90
7290;DHT22;63176;52.678;13.250;2023-02-28T16:47:14;3.00;99.90
7290;DHT22;63176;52.678;13.250;2023-02-28T16:49:40;2.90;99.90
7290;DHT22;63176;52.678;13.250;2023-02-28T16:52:09;2.80;99.90
7290;DHT22;63176;52.678;13.250;2023-02-28T16:54:35;2.60;99.90
7290;DHT22;63176;52.678;13.250;2023-02-28T16:57:02;2.50;99.90
7290;DHT22;63176;52.678;13.250;2023-02-28T16:59:28;2.30;99.90
7290;DHT22;63176;52.678;13.250;2023-02-28T17:01:55;2.20;99.90
7290;DHT22;63176;52.678;13.250;2023-02-28T17:04:26;2.10;99.90
7290;DHT22;63176;52.678;13.250;2023-02-28T17:06:52;2.00;99.90
7290;DHT22;63176;52.678;13.250;2023-02-28T17:09:21;1.90;99.90
7290;DHT22;63176;52.678;13.250;2023-02-28T17:11:47;1.80;99.90
7290;DHT22;63176;52.678;13.250;2023-02-28T17:14:14;1.80;99.90
7290;DHT22;63176;52.678;13.250;2023-02-28T17:16:41;1.70;99.90
7290;DHT22;63176;52.678;13.250;2023-02-28T17:19:12;1.60;99.90
7290;DHT22;63176;52.678;13.250;2023-02-28T17:21:38;1.50;99.90
7290;DHT22;63176;52.678;13.250;2023-02-28T17:24:04;1.40;99.90
7290;DHT22;63176;52.678;13.250;2023-02-28T17:26:30;1.30;99.90
7290;DHT22;63176;52.678;13.250;2023-02-28T17:28:57;1.20;99.90
7290;DHT22;63176;52.678;13.250;2023-02-28T17:31:24;1.20;99.90
7290;DHT22;63176;52.678;13.250;2023-02-28T17:33:50;1.10;99.90
7290;DHT22;63176;52.678;13.250;2023-02-28T17:36:21;1.10;99.90
7290;DHT22;63176;52.678;13.250;2023-02-28T17:38:48;1.10;99.90
7290;DHT22;63176;52.678;13.250;2023-02-28T17:41:13;1.00;99.90
7290;DHT22;63176;52.678;13.250;2023-02-28T17:43:39;0.90;99.90
7290;DHT22;63176;52.678;13.250;2023-02-28T17:46:08;0.90;99.90
7290;DHT22;63176;52.678;13.250;2023-02-28T17:48:36;0.80;99.90
7290;DHT22;63176;52.678;13.250;2023-02-28T17:51:02;0.70;99.90
7290;DHT22;63176;52.678;13.250;2023-02-28T17:53:28;0.70;99.90
7290;DHT22;63176;52.678;13.250;2023-02-28T17:55:53;0.60;99.90
7290;DHT22;63176;52.678;13.250;2023-02-28T17:58:19;0.60;99.90
7290;DHT22;63176;52.678;13.250;2023-02-28T18:00:45;0.60;99.90
7290;DHT22;63176;52.678;13.250;2023-02-28T18:03:12;0.60;99.90
7290;DHT22;63176;52.678;13.250;2023-02-28T18:05:38;0.50;99.90
7290;DHT22;63176;52.678;13.250;2023-02-28T18:08:04;0.50;99.90
7290;DHT22;63176;52.678;13.250;2023-02-28T18:10:30;0.60;99.90
7290;DHT22;63176;52.678;13.250;2023-02-28T18:12:59;0.60;99.90
7290;DHT22;63176;52.678;13.250;2023-02-28T18:15:25;0.50;99.90
7290;DHT22;63176;52.678;13.250;2023-02-28T18:17:51;0.50;99.90
7290;DHT22;63176;52.678;13.250;2023-02-28T18:20:18;0.50;99.90
7290;DHT22;63176;52.678;13.250;2023-02-28T18:22:44;0.40;99.90
7290;DHT22;63176;52.678;13.250;2023-02-28T18:25:10;0.30;99.90
7290;DHT22;63176;52.678;13.250;2023-02-28T18:27:41;0.40;99.90
7290;DHT22;63176;52.678;13.250;2023-02-28T18:30:19;0.40;99.90
7290;DHT22;63176;52.678;13.250;2023-02-28T18:32:45;0.40;99.90